sensor_id;sensor_type;location;lat;lon;timestamp;P1;durP1;ratioP1;P2;durP2;ratioP2
21315;SDS011;10817;55.820;13.030;2023-10-09T00:00:33;4.13;;;1.83;;
21315;SDS011;10817;55.820;13.030;2023-10-09T00:03:22;3.25;;;1.70;;
21315;SDS011;10817;55.820;13.030;2023-10-09T00:05:49;5.15;;;2.03;;
21315;SDS011;10817;55.820;13.030;2023-10-09T00:08:18;5.53;;;1.70;;
21315;SDS011;10817;55.820;13.030;2023-10-09T00:10:46;2.67;;;1.70;;
21315;SDS011;10817;55.820;13.030;2023-10-09T00:13:19;3.63;;;1.70;;
21315;SDS011;10817;55.820;13.030;2023-10-09T00:15:53;3.20;;;1.80;;
21315;SDS011;10817;55.820;13.030;2023-10-09T00:18:26;4.75;;;1.75;;
21315;SDS011;10817;55.820;13.030;2023-10-09T00:20:58;2.92;;;1.88;;
21315;SDS011;10817;55.820;13.030;2023-10-09T00:23:36;2.33;;;1.80;;
21315;SDS011;10817;55.820;13.030;2023-10-09T00:26:04;2.83;;;1.85;;
21315;SDS011;10817;55.820;13.030;2023-10-09T00:28:48;1.80;;;1.50;;
21315;SDS011;10817;55.820;13.030;2023-10-09T00:31:19;3.65;;;1.95;;
21315;SDS011;10817;55.820;13.030;2023-10-09T00:33:56;3.67;;;2.00;;
21315;SDS011;10817;55.820;13.030;2023-10-09T00:36:30;3.17;;;2.00;;
21315;SDS011;10817;55.820;13.030;2023-10-09T00:38:58;3.15;;;2.00;;
21315;SDS011;10817;55.820;13.030;2023-10-09T00:41:37;2.05;;;1.75;;
21315;SDS011;10817;55.820;13.030;2023-10-09T00:44:12;2.63;;;1.65;;
21315;SDS011;10817;55.820;13.030;2023-10-09T00:46:43;6.25;;;1.80;;
21315;SDS011;10817;55.820;13.030;2023-10-09T00:49:14;2.85;;;1.63;;
21315;SDS011;10817;55.820;13.030;2023-10-09T00:51:42;5.53;;;1.70;;
21315;SDS011;10817;55.820;13.030;2023-10-09T00:54:21;2.88;;;1.90;;
21315;SDS011;10817;55.820;13.030;2023-10-09T00:56:53;5.63;;;1.80;;
21315;SDS011;10817;55.820;13.030;2023-10-09T00:59:31;2.28;;;1.65;;
21315;SDS011;10817;55.820;13.030;2023-10-09T01:02:01;2.40;;;1.63;;
21315;SDS011;10817;55.820;13.030;2023-10-09T01:04:31;4.38;;;2.03;;
21315;SDS011;10817;55.820;13.030;2023-10-09T01:07:02;4.30;;;2.17;;
21315;SDS011;10817;55.820;13.030;2023-10-09T01:09:34;10.90;;;2.60;;
21315;SDS011;10817;55.820;13.030;2023-10-09T01:12:03;4.05;;;1.83;;
21315;SDS011;10817;55.820;13.030;2023-10-09T01:14:30;5.18;;;1.90;;
21315;SDS011;10817;55.820;13.030;2023-10-09T01:17:02;2.20;;;1.88;;
21315;SDS011;10817;55.820;13.030;2023-10-09T01:19:34;3.47;;;1.95;;
21315;SDS011;10817;55.820;13.030;2023-10-09T01:22:01;3.65;;;1.95;;
21315;SDS011;10817;55.820;13.030;2023-10-09T01:24:38;3.45;;;1.70;;
21315;SDS011;10817;55.820;13.030;2023-10-09T01:27:06;4.72;;;1.80;;
21315;SDS011;10817;55.820;13.030;2023-10-09T01:29:39;4.43;;;2.00;;
21315;SDS011;10817;55.820;13.030;2023-10-09T01:32:07;2.38;;;1.90;;
21315;SDS011;10817;55.820;13.030;2023-10-09T01:34:42;2.85;;;1.90;;
21315;SDS011;10817;55.820;13.030;2023-10-09T01:37:11;3.22;;;2.08;;
21315;SDS011;10817;55.820;13.030;2023-10-09T01:39:45;2.40;;;1.80;;
21315;SDS011;10817;55.820;13.030;2023-10-09T01:42:13;2.28;;;1.75;;
21315;SDS011;10817;55.820;13.030;2023-10-09T01:44:49;3.30;;;2.03;;
21315;SDS011;10817;55.820;13.030;2023-10-09T01:47:18;2.88;;;1.80;;
21315;SDS011;10817;55.820;13.030;2023-10-09T01:49:46;3.83;;;1.85;;
21315;SDS011;10817;55.820;13.030;2023-10-09T01:52:15;2.47;;;1.80;;
21315;SDS011;10817;55.820;13.030;2023-10-09T01:54:44;3.88;;;1.70;;
21315;SDS011;10817;55.820;13.030;2023-10-09T01:57:14;3.05;;;1.80;;
21315;SDS011;10817;55.820;13.030;2023-10-09T01:59:46;3.20;;;1.77;;
21315;SDS011;10817;55.820;13.030;2023-10-09T02:02:15;3.22;;;1.85;;
21315;SDS011;10817;55.820;13.030;2023-10-09T02:04:52;3.80;;;1.98;;
21315;SDS011;10817;55.820;13.030;2023-10-09T02:07:20;1.67;;;1.40;;
21315;SDS011;10817;55.820;13.030;2023-10-09T02:09:56;4.32;;;2.15;;
21315;SDS011;10817;55.820;13.030;2023-10-09T02:12:23;2.03;;;1.60;;
21315;SDS011;10817;55.820;13.030;2023-10-09T02:14:58;3.58;;;1.73;;
21315;SDS011;10817;55.820;13.030;2023-10-09T02:17:32;6.15;;;1.90;;
21315;SDS011;10817;55.820;13.030;2023-10-09T02:19:59;1.83;;;1.52;;
21315;SDS011;10817;55.820;13.030;2023-10-09T02:22:41;4.90;;;2.20;;
21315;SDS011;10817;55.820;13.030;2023-10-09T02:25:10;1.73;;;1.45;;
21315;SDS011;10817;55.820;13.030;2023-10-09T02:27:39;3.28;;;1.90;;
21315;SDS011;10817;55.820;13.030;2023-10-09T02:30:11;2.90;;;2.13;;
21315;SDS011;10817;55.820;13.030;2023-10-09T02:32:44;3.80;;;2.65;;
21315;SDS011;10817;55.820;13.030;2023-10-09T02:35:18;5.13;;;1.73;;
21315;SDS011;10817;55.820;13.030;2023-10-09T02:38:03;3.05;;;1.80;;
21315;SDS011;10817;55.820;13.030;2023-10-09T02:40:41;3.67;;;1.90;;
21315;SDS011;10817;55.820;13.030;2023-10-09T02:43:30;3.33;;;1.63;;
21315;SDS011;10817;55.820;13.030;2023-10-09T02:46:06;2.28;;;1.55;;
21315;SDS011;10817;55.820;13.030;2023-10-09T02:48:39;3.35;;;1.77;;
21315;SDS011;10817;55.820;13.030;2023-10-09T02:51:11;2.22;;;1.50;;
21315;SDS011;10817;55.820;13.030;2023-10-09T02:53:47;2.17;;;1.75;;
21315;SDS011;10817;55.820;13.030;2023-10-09T02:56:18;3.80;;;1.75;;
21315;SDS011;10817;55.820;13.030;2023-10-09T02:58:50;2.47;;;1.67;;
21315;SDS011;10817;55.820;13.030;2023-10-09T03:01:17;6.00;;;1.80;;
21315;SDS011;10817;55.820;13.030;2023-10-09T03:03:45;3.60;;;1.75;;
21315;SDS011;10817;55.820;13.030;2023-10-09T03:06:12;3.38;;;1.60;;
21315;SDS011;10817;55.820;13.030;2023-10-09T03:08:44;2.63;;;1.85;;
21315;SDS011;10817;55.820;13.030;2023-10-09T03:11:13;3.17;;;1.52;;
21315;SDS011;10817;55.820;13.030;2023-10-09T03:13:42;2.83;;;1.70;;
21315;SDS011;10817;55.820;13.030;2023-10-09T03:16:10;2.25;;;1.60;;
21315;SDS011;10817;55.820;13.030;2023-10-09T03:18:45;2.03;;;1.75;;
21315;SDS011;10817;55.820;13.030;2023-10-09T03:21:13;2.85;;;1.70;;
21315;SDS011;10817;55.820;13.030;2023-10-09T03:23:42;2.90;;;1.73;;
21315;SDS011;10817;55.820;13.030;2023-10-09T03:26:09;3.53;;;1.50;;
21315;SDS011;10817;55.820;13.030;2023-10-09T03:28:37;1.90;;;1.50;;
21315;SDS011;10817;55.820;13.030;2023-10-09T03:31:05;3.15;;;1.30;;
21315;SDS011;10817;55.820;13.030;2023-10-09T03:33:35;2.35;;;1.60;;
21315;SDS011;10817;55.820;13.030;2023-10-09T03:36:03;3.00;;;1.70;;
21315;SDS011;10817;55.820;13.030;2023-10-09T03:38:34;1.60;;;1.50;;
21315;SDS011;10817;55.820;13.030;2023-10-09T03:41:02;2.40;;;1.20;;
21315;SDS011;10817;55.820;13.030;2023-10-09T03:43:32;1.30;;;1.20;;
21315;SDS011;10817;55.820;13.030;2023-10-09T03:46:03;2.03;;;1.20;;
21315;SDS011;10817;55.820;13.030;2023-10-09T03:48:35;3.22;;;1.35;;
21315;SDS011;10817;55.820;13.030;2023-10-09T03:51:02;2.13;;;1.30;;
21315;SDS011;10817;55.820;13.030;2023-10-09T03:53:36;2.15;;;1.27;;
21315;SDS011;10817;55.820;13.030;2023-10-09T03:56:04;1.52;;;1.30;;
21315;SDS011;10817;55.820;13.030;2023-10-09T03:58:37;3.60;;;1.50;;
21315;SDS011;10817;55.820;13.030;2023-10-09T04:01:07;2.17;;;1.40;;
21315;SDS011;10817;55.820;13.030;2023-10-09T04:03:38;5.25;;;1.30;;
21315;SDS011;10817;55.820;13.030;2023-10-09T04:06:06;3.33;;;1.40;;
21315;SDS011;10817;55.820;13.030;2023-10-09T04:08:36;2.10;;;1.13;;
21315;SDS011;10817;55.820;13.030;2023-10-09T04:11:12;2.85;;;1.50;;
21315;SDS011;10817;55.820;13.030;2023-10-09T04:13:43;2.20;;;1.30;;
21315;SDS011;10817;55.820;13.030;2023-10-09T04:16:11;2.42;;;1.48;;
21315;SDS011;10817;55.820;13.030;2023-10-09T04:19:00;1.83;;;1.30;;
21315;SDS011;10817;55.820;13.030;2023-10-09T04:21:36;3.88;;;1.40;;
21315;SDS011;10817;55.820;13.030;2023-10-09T04:24:04;4.38;;;1.23;;
21315;SDS011;10817;55.820;13.030;2023-10-09T04:26:49;3.42;;;1.30;;
21315;SDS011;10817;55.820;13.030;2023-10-09T04:29:23;3.50;;;1.20;;
21315;SDS011;10817;55.820;13.030;2023-10-09T04:31:53;2.97;;;1.30;;
21315;SDS011;10817;55.820;13.030;2023-10-09T04:34:23;2.10;;;1.20;;
21315;SDS011;10817;55.820;13.030;2023-10-09T04:37:00;1.55;;;1.30;;
21315;SDS011;10817;55.820;13.030;2023-10-09T04:39:45;1.25;;;1.10;;
21315;SDS011;10817;55.820;13.030;2023-10-09T04:42:26;2.03;;;1.17;;
21315;SDS011;10817;55.820;13.030;2023-10-09T04:45:03;2.70;;;1.33;;
21315;SDS011;10817;55.820;13.030;2023-10-09T04:48:05;1.52;;;1.20;;
21315;SDS011;10817;55.820;13.030;2023-10-09T04:50:35;2.90;;;1.40;;
21315;SDS011;10817;55.820;13.030;2023-10-09T04:53:10;1.95;;;1.20;;
21315;SDS011;10817;55.820;13.030;2023-10-09T04:55:48;3.00;;;1.15;;
21315;SDS011;10817;55.820;13.030;2023-10-09T04:58:23;3.25;;;1.15;;
21315;SDS011;10817;55.820;13.030;2023-10-09T05:00:51;2.38;;;1.27;;
21315;SDS011;10817;55.820;13.030;2023-10-09T05:03:53;2.95;;;1.00;;
21315;SDS011;10817;55.820;13.030;2023-10-09T05:06:23;3.13;;;1.45;;
21315;SDS011;10817;55.820;13.030;2023-10-09T05:09:20;2.70;;;1.63;;
21315;SDS011;10817;55.820;13.030;2023-10-09T05:11:47;4.30;;;1.45;;
21315;SDS011;10817;55.820;13.030;2023-10-09T05:14:25;3.00;;;1.67;;
21315;SDS011;10817;55.820;13.030;2023-10-09T05:17:04;4.53;;;1.60;;
21315;SDS011;10817;55.820;13.030;2023-10-09T05:19:41;4.95;;;1.45;;
21315;SDS011;10817;55.820;13.030;2023-10-09T05:22:09;2.38;;;1.50;;
21315;SDS011;10817;55.820;13.030;2023-10-09T05:24:55;3.30;;;1.42;;
21315;SDS011;10817;55.820;13.030;2023-10-09T05:27:21;1.98;;;1.20;;
21315;SDS011;10817;55.820;13.030;2023-10-09T05:30:12;2.03;;;1.50;;
21315;SDS011;10817;55.820;13.030;2023-10-09T05:32:49;3.70;;;1.40;;
21315;SDS011;10817;55.820;13.030;2023-10-09T05:35:21;1.90;;;1.20;;
21315;SDS011;10817;55.820;13.030;2023-10-09T05:37:56;2.50;;;1.40;;
21315;SDS011;10817;55.820;13.030;2023-10-09T05:40:29;3.47;;;1.30;;
21315;SDS011;10817;55.820;13.030;2023-10-09T05:42:56;2.92;;;1.40;;
21315;SDS011;10817;55.820;13.030;2023-10-09T05:45:24;1.83;;;1.27;;
21315;SDS011;10817;55.820;13.030;2023-10-09T05:48:09;2.97;;;1.30;;
21315;SDS011;10817;55.820;13.030;2023-10-09T05:50:54;4.35;;;1.25;;
21315;SDS011;10817;55.820;13.030;2023-10-09T05:53:38;2.50;;;1.20;;
21315;SDS011;10817;55.820;13.030;2023-10-09T05:56:36;3.70;;;1.17;;
21315;SDS011;10817;55.820;13.030;2023-10-09T05:59:18;1.75;;;1.13;;
21315;SDS011;10817;55.820;13.030;2023-10-09T06:02:02;1.80;;;1.15;;
21315;SDS011;10817;55.820;13.030;2023-10-09T06:04:47;2.03;;;1.27;;
21315;SDS011;10817;55.820;13.030;2023-10-09T06:07:20;2.85;;;1.40;;
21315;SDS011;10817;55.820;13.030;2023-10-09T06:10:08;1.73;;;1.20;;
21315;SDS011;10817;55.820;13.030;2023-10-09T06:12:44;1.20;;;1.10;;
21315;SDS011;10817;55.820;13.030;2023-10-09T06:15:28;2.47;;;1.20;;
21315;SDS011;10817;55.820;13.030;2023-10-09T06:18:16;2.55;;;1.40;;
21315;SDS011;10817;55.820;13.030;2023-10-09T06:20:59;3.00;;;1.35;;
21315;SDS011;10817;55.820;13.030;2023-10-09T06:23:55;3.22;;;1.15;;
21315;SDS011;10817;55.820;13.030;2023-10-09T06:26:41;5.07;;;1.45;;
21315;SDS011;10817;55.820;13.030;2023-10-09T06:29:17;3.83;;;1.35;;
21315;SDS011;10817;55.820;13.030;2023-10-09T06:32:00;1.90;;;1.20;;
21315;SDS011;10817;55.820;13.030;2023-10-09T06:34:59;2.00;;;1.27;;
21315;SDS011;10817;55.820;13.030;2023-10-09T06:37:41;4.13;;;1.35;;
21315;SDS011;10817;55.820;13.030;2023-10-09T06:40:22;3.28;;;1.50;;
21315;SDS011;10817;55.820;13.030;2023-10-09T06:43:04;2.88;;;1.30;;
21315;SDS011;10817;55.820;13.030;2023-10-09T06:45:35;2.78;;;1.35;;
21315;SDS011;10817;55.820;13.030;2023-10-09T06:48:10;4.75;;;1.73;;
21315;SDS011;10817;55.820;13.030;2023-10-09T06:50:51;2.22;;;1.50;;
21315;SDS011;10817;55.820;13.030;2023-10-09T06:53:29;3.22;;;1.70;;
21315;SDS011;10817;55.820;13.030;2023-10-09T06:56:10;2.13;;;1.30;;
21315;SDS011;10817;55.820;13.030;2023-10-09T06:58:49;2.78;;;1.30;;
21315;SDS011;10817;55.820;13.030;2023-10-09T07:01:19;3.17;;;1.33;;
21315;SDS011;10817;55.820;13.030;2023-10-09T07:03:54;6.57;;;1.48;;
21315;SDS011;10817;55.820;13.030;2023-10-09T07:06:25;1.77;;;1.38;;
21315;SDS011;10817;55.820;13.030;2023-10-09T07:09:07;3.22;;;1.48;;
21315;SDS011;10817;55.820;13.030;2023-10-09T07:11:44;7.05;;;2.30;;
21315;SDS011;10817;55.820;13.030;2023-10-09T07:14:24;2.45;;;1.30;;
21315;SDS011;10817;55.820;13.030;2023-10-09T07:17:09;2.83;;;1.50;;
21315;SDS011;10817;55.820;13.030;2023-10-09T07:19:47;7.50;;;1.48;;
21315;SDS011;10817;55.820;13.030;2023-10-09T07:22:34;6.72;;;1.58;;
21315;SDS011;10817;55.820;13.030;2023-10-09T07:25:05;4.03;;;1.90;;
21315;SDS011;10817;55.820;13.030;2023-10-09T07:27:39;2.90;;;1.85;;
21315;SDS011;10817;55.820;13.030;2023-10-09T07:30:12;3.58;;;2.13;;
21315;SDS011;10817;55.820;13.030;2023-10-09T07:32:53;3.85;;;1.92;;
21315;SDS011;10817;55.820;13.030;2023-10-09T07:35:20;3.60;;;1.38;;
21315;SDS011;10817;55.820;13.030;2023-10-09T07:38:11;2.33;;;1.20;;
21315;SDS011;10817;55.820;13.030;2023-10-09T07:40:40;2.60;;;1.33;;
21315;SDS011;10817;55.820;13.030;2023-10-09T07:43:20;1.63;;;1.20;;
21315;SDS011;10817;55.820;13.030;2023-10-09T07:45:52;2.38;;;1.60;;
21315;SDS011;10817;55.820;13.030;2023-10-09T07:48:41;2.63;;;1.70;;
21315;SDS011;10817;55.820;13.030;2023-10-09T07:51:17;2.47;;;1.35;;
21315;SDS011;10817;55.820;13.030;2023-10-09T07:53:48;4.70;;;1.38;;
21315;SDS011;10817;55.820;13.030;2023-10-09T07:56:22;3.13;;;1.60;;
21315;SDS011;10817;55.820;13.030;2023-10-09T07:58:49;7.07;;;1.75;;
21315;SDS011;10817;55.820;13.030;2023-10-09T08:01:18;5.57;;;1.75;;
21315;SDS011;10817;55.820;13.030;2023-10-09T08:04:00;4.82;;;1.30;;
21315;SDS011;10817;55.820;13.030;2023-10-09T08:06:32;2.63;;;1.17;;
21315;SDS011;10817;55.820;13.030;2023-10-09T08:09:05;1.85;;;1.17;;
21315;SDS011;10817;55.820;13.030;2023-10-09T08:12:04;1.73;;;1.30;;
21315;SDS011;10817;55.820;13.030;2023-10-09T08:15:00;4.68;;;1.30;;
21315;SDS011;10817;55.820;13.030;2023-10-09T08:17:42;2.33;;;1.17;;
21315;SDS011;10817;55.820;13.030;2023-10-09T08:20:16;3.83;;;1.38;;
21315;SDS011;10817;55.820;13.030;2023-10-09T08:22:50;4.00;;;1.20;;
21315;SDS011;10817;55.820;13.030;2023-10-09T08:25:17;3.13;;;1.60;;
21315;SDS011;10817;55.820;13.030;2023-10-09T08:27:57;3.22;;;1.40;;
21315;SDS011;10817;55.820;13.030;2023-10-09T08:30:44;3.03;;;1.30;;
21315;SDS011;10817;55.820;13.030;2023-10-09T08:33:29;4.80;;;1.30;;
21315;SDS011;10817;55.820;13.030;2023-10-09T08:36:10;5.10;;;1.50;;
21315;SDS011;10817;55.820;13.030;2023-10-09T08:38:47;3.60;;;1.30;;
21315;SDS011;10817;55.820;13.030;2023-10-09T08:41:14;2.95;;;1.40;;
21315;SDS011;10817;55.820;13.030;2023-10-09T08:43:48;2.08;;;1.20;;
21315;SDS011;10817;55.820;13.030;2023-10-09T08:46:18;3.75;;;1.60;;
21315;SDS011;10817;55.820;13.030;2023-10-09T08:48:47;5.45;;;1.60;;
21315;SDS011;10817;55.820;13.030;2023-10-09T08:51:16;4.18;;;1.40;;
21315;SDS011;10817;55.820;13.030;2023-10-09T08:53:45;3.20;;;2.10;;
21315;SDS011;10817;55.820;13.030;2023-10-09T08:56:12;2.03;;;1.45;;
21315;SDS011;10817;55.820;13.030;2023-10-09T08:58:44;6.30;;;1.30;;
21315;SDS011;10817;55.820;13.030;2023-10-09T09:01:15;3.90;;;1.88;;
21315;SDS011;10817;55.820;13.030;2023-10-09T09:03:45;3.72;;;2.13;;
21315;SDS011;10817;55.820;13.030;2023-10-09T09:06:13;4.90;;;1.48;;
21315;SDS011;10817;55.820;13.030;2023-10-09T09:08:40;1.40;;;0.88;;
21315;SDS011;10817;55.820;13.030;2023-10-09T09:11:10;7.13;;;1.40;;
21315;SDS011;10817;55.820;13.030;2023-10-09T09:13:41;4.65;;;1.40;;
21315;SDS011;10817;55.820;13.030;2023-10-09T09:16:17;3.80;;;1.42;;
21315;SDS011;10817;55.820;13.030;2023-10-09T09:18:52;3.92;;;0.90;;
21315;SDS011;10817;55.820;13.030;2023-10-09T09:21:27;2.28;;;0.95;;
21315;SDS011;10817;55.820;13.030;2023-10-09T09:23:58;3.67;;;1.05;;
21315;SDS011;10817;55.820;13.030;2023-10-09T09:26:33;12.20;;;1.27;;
21315;SDS011;10817;55.820;13.030;2023-10-09T09:29:03;1.75;;;1.00;;
21315;SDS011;10817;55.820;13.030;2023-10-09T09:31:32;2.85;;;1.20;;
21315;SDS011;10817;55.820;13.030;2023-10-09T09:34:03;3.50;;;1.05;;
21315;SDS011;10817;55.820;13.030;2023-10-09T09:36:50;5.25;;;1.10;;
21315;SDS011;10817;55.820;13.030;2023-10-09T09:39:21;3.20;;;1.27;;
21315;SDS011;10817;55.820;13.030;2023-10-09T09:41:53;1.95;;;1.05;;
21315;SDS011;10817;55.820;13.030;2023-10-09T09:44:22;2.13;;;1.20;;
21315;SDS011;10817;55.820;13.030;2023-10-09T09:46:52;1.90;;;1.00;;
21315;SDS011;10817;55.820;13.030;2023-10-09T09:49:20;3.10;;;1.20;;
21315;SDS011;10817;55.820;13.030;2023-10-09T09:51:49;3.63;;;1.20;;
21315;SDS011;10817;55.820;13.030;2023-10-09T09:54:16;3.17;;;1.13;;
21315;SDS011;10817;55.820;13.030;2023-10-09T09:56:47;2.55;;;1.10;;
21315;SDS011;10817;55.820;13.030;2023-10-09T09:59:18;1.92;;;1.10;;
21315;SDS011;10817;55.820;13.030;2023-10-09T10:01:52;3.50;;;0.82;;
21315;SDS011;10817;55.820;13.030;2023-10-09T10:04:24;1.77;;;1.02;;
21315;SDS011;10817;55.820;13.030;2023-10-09T10:06:53;1.90;;;1.02;;
21315;SDS011;10817;55.820;13.030;2023-10-09T10:09:35;2.03;;;0.90;;
21315;SDS011;10817;55.820;13.030;2023-10-09T10:12:06;1.13;;;0.82;;
21315;SDS011;10817;55.820;13.030;2023-10-09T10:17:18;1.45;;;0.80;;
21315;SDS011;10817;55.820;13.030;2023-10-09T10:20:01;1.67;;;0.80;;
21315;SDS011;10817;55.820;13.030;2023-10-09T10:22:51;1.52;;;0.93;;
21315;SDS011;10817;55.820;13.030;2023-10-09T10:25:42;2.03;;;0.85;;
21315;SDS011;10817;55.820;13.030;2023-10-09T10:28:20;2.83;;;1.40;;
21315;SDS011;10817;55.820;13.030;2023-10-09T10:31:07;1.70;;;0.98;;
21315;SDS011;10817;55.820;13.030;2023-10-09T10:36:20;1.40;;;0.80;;
21315;SDS011;10817;55.820;13.030;2023-10-09T10:38:52;2.05;;;0.70;;
21315;SDS011;10817;55.820;13.030;2023-10-09T10:41:29;1.30;;;1.00;;
21315;SDS011;10817;55.820;13.030;2023-10-09T10:44:01;1.80;;;0.80;;
21315;SDS011;10817;55.820;13.030;2023-10-09T10:46:56;3.83;;;0.80;;
21315;SDS011;10817;55.820;13.030;2023-10-09T10:49:23;1.33;;;0.70;;
21315;SDS011;10817;55.820;13.030;2023-10-09T10:52:02;1.67;;;0.90;;
21315;SDS011;10817;55.820;13.030;2023-10-09T10:54:41;1.75;;;0.93;;
21315;SDS011;10817;55.820;13.030;2023-10-09T10:57:16;1.35;;;0.90;;
21315;SDS011;10817;55.820;13.030;2023-10-09T10:59:45;1.80;;;1.17;;
21315;SDS011;10817;55.820;13.030;2023-10-09T11:02:14;1.17;;;0.70;;
21315;SDS011;10817;55.820;13.030;2023-10-09T11:04:45;1.50;;;0.90;;
21315;SDS011;10817;55.820;13.030;2023-10-09T11:07:21;1.05;;;0.80;;
21315;SDS011;10817;55.820;13.030;2023-10-09T11:09:53;2.92;;;0.90;;
21315;SDS011;10817;55.820;13.030;2023-10-09T11:12:42;3.15;;;1.13;;
21315;SDS011;10817;55.820;13.030;2023-10-09T11:15:31;2.08;;;0.80;;
21315;SDS011;10817;55.820;13.030;2023-10-09T11:18:03;0.98;;;0.60;;
21315;SDS011;10817;55.820;13.030;2023-10-09T11:20:32;2.30;;;1.00;;
21315;SDS011;10817;55.820;13.030;2023-10-09T11:23:01;1.27;;;0.88;;
21315;SDS011;10817;55.820;13.030;2023-10-09T11:25:46;1.67;;;1.00;;
21315;SDS011;10817;55.820;13.030;2023-10-09T11:28:16;3.05;;;0.98;;
21315;SDS011;10817;55.820;13.030;2023-10-09T11:31:05;2.47;;;0.80;;
21315;SDS011;10817;55.820;13.030;2023-10-09T11:33:42;1.20;;;0.85;;
21315;SDS011;10817;55.820;13.030;2023-10-09T11:36:09;1.35;;;0.75;;
21315;SDS011;10817;55.820;13.030;2023-10-09T11:38:36;1.63;;;1.00;;
21315;SDS011;10817;55.820;13.030;2023-10-09T11:41:14;2.28;;;1.08;;
21315;SDS011;10817;55.820;13.030;2023-10-09T11:43:48;1.60;;;0.82;;
21315;SDS011;10817;55.820;13.030;2023-10-09T11:46:19;2.13;;;0.93;;
21315;SDS011;10817;55.820;13.030;2023-10-09T11:49:04;1.75;;;0.75;;
21315;SDS011;10817;55.820;13.030;2023-10-09T11:51:51;2.35;;;0.85;;
21315;SDS011;10817;55.820;13.030;2023-10-09T11:54:36;1.45;;;0.90;;
21315;SDS011;10817;55.820;13.030;2023-10-09T11:57:05;1.67;;;0.98;;
21315;SDS011;10817;55.820;13.030;2023-10-09T11:59:32;2.38;;;1.10;;
21315;SDS011;10817;55.820;13.030;2023-10-09T12:02:03;1.65;;;0.90;;
21315;SDS011;10817;55.820;13.030;2023-10-09T12:04:30;3.35;;;1.48;;
21315;SDS011;10817;55.820;13.030;2023-10-09T12:06:57;2.08;;;0.80;;
21315;SDS011;10817;55.820;13.030;2023-10-09T12:09:32;1.42;;;0.80;;
21315;SDS011;10817;55.820;13.030;2023-10-09T12:12:00;2.13;;;0.85;;
21315;SDS011;10817;55.820;13.030;2023-10-09T12:14:29;1.48;;;1.00;;
21315;SDS011;10817;55.820;13.030;2023-10-09T12:16:59;2.28;;;0.93;;
21315;SDS011;10817;55.820;13.030;2023-10-09T12:19:30;2.15;;;0.88;;
21315;SDS011;10817;55.820;13.030;2023-10-09T12:21:58;3.28;;;0.90;;
21315;SDS011;10817;55.820;13.030;2023-10-09T12:24:26;1.65;;;1.05;;
21315;SDS011;10817;55.820;13.030;2023-10-09T12:26:56;1.88;;;1.05;;
21315;SDS011;10817;55.820;13.030;2023-10-09T12:29:24;1.80;;;1.00;;
21315;SDS011;10817;55.820;13.030;2023-10-09T12:31:56;1.65;;;0.98;;
21315;SDS011;10817;55.820;13.030;2023-10-09T12:34:24;4.45;;;1.00;;
21315;SDS011;10817;55.820;13.030;2023-10-09T12:36:53;1.65;;;0.80;;
21315;SDS011;10817;55.820;13.030;2023-10-09T12:39:20;1.35;;;0.80;;
21315;SDS011;10817;55.820;13.030;2023-10-09T12:41:48;1.52;;;0.90;;
21315;SDS011;10817;55.820;13.030;2023-10-09T12:44:18;0.95;;;0.73;;
21315;SDS011;10817;55.820;13.030;2023-10-09T12:46:46;2.17;;;1.00;;
21315;SDS011;10817;55.820;13.030;2023-10-09T12:49:19;1.42;;;0.93;;
21315;SDS011;10817;55.820;13.030;2023-10-09T12:51:50;3.30;;;1.13;;
21315;SDS011;10817;55.820;13.030;2023-10-09T12:54:18;1.60;;;0.90;;
21315;SDS011;10817;55.820;13.030;2023-10-09T12:56:49;1.52;;;1.05;;
21315;SDS011;10817;55.820;13.030;2023-10-09T12:59:16;2.67;;;1.13;;
21315;SDS011;10817;55.820;13.030;2023-10-09T13:01:45;1.60;;;1.00;;
21315;SDS011;10817;55.820;13.030;2023-10-09T13:04:17;1.50;;;1.02;;
21315;SDS011;10817;55.820;13.030;2023-10-09T13:06:48;2.13;;;1.05;;
21315;SDS011;10817;55.820;13.030;2023-10-09T13:09:19;6.22;;;1.30;;
21315;SDS011;10817;55.820;13.030;2023-10-09T13:11:58;2.15;;;1.17;;
21315;SDS011;10817;55.820;13.030;2023-10-09T13:14:26;1.63;;;0.77;;
21315;SDS011;10817;55.820;13.030;2023-10-09T13:16:53;2.25;;;1.05;;
21315;SDS011;10817;55.820;13.030;2023-10-09T13:19:21;4.78;;;0.90;;
21315;SDS011;10817;55.820;13.030;2023-10-09T13:21:51;2.08;;;0.90;;
21315;SDS011;10817;55.820;13.030;2023-10-09T13:24:19;2.35;;;1.15;;
21315;SDS011;10817;55.820;13.030;2023-10-09T13:26:55;2.58;;;1.23;;
21315;SDS011;10817;55.820;13.030;2023-10-09T13:29:23;1.85;;;1.00;;
21315;SDS011;10817;55.820;13.030;2023-10-09T13:31:50;1.85;;;1.10;;
21315;SDS011;10817;55.820;13.030;2023-10-09T13:34:23;1.85;;;1.05;;
21315;SDS011;10817;55.820;13.030;2023-10-09T13:36:54;2.75;;;1.25;;
21315;SDS011;10817;55.820;13.030;2023-10-09T13:39:24;1.95;;;1.13;;
21315;SDS011;10817;55.820;13.030;2023-10-09T13:41:52;1.90;;;1.30;;
21315;SDS011;10817;55.820;13.030;2023-10-09T13:44:23;1.88;;;0.95;;
21315;SDS011;10817;55.820;13.030;2023-10-09T13:46:52;2.10;;;1.17;;
21315;SDS011;10817;55.820;13.030;2023-10-09T13:49:19;3.38;;;1.00;;
21315;SDS011;10817;55.820;13.030;2023-10-09T13:51:47;2.53;;;1.00;;
21315;SDS011;10817;55.820;13.030;2023-10-09T13:54:16;2.75;;;1.00;;
21315;SDS011;10817;55.820;13.030;2023-10-09T13:56:53;1.65;;;0.95;;
21315;SDS011;10817;55.820;13.030;2023-10-09T13:59:20;2.67;;;1.20;;
21315;SDS011;10817;55.820;13.030;2023-10-09T14:01:48;1.35;;;0.90;;
21315;SDS011;10817;55.820;13.030;2023-10-09T14:04:16;1.90;;;1.17;;
21315;SDS011;10817;55.820;13.030;2023-10-09T14:06:44;1.42;;;1.00;;
21315;SDS011;10817;55.820;13.030;2023-10-09T14:09:12;1.60;;;1.00;;
21315;SDS011;10817;55.820;13.030;2023-10-09T14:11:56;2.15;;;1.15;;
21315;SDS011;10817;55.820;13.030;2023-10-09T14:14:32;1.15;;;0.90;;
21315;SDS011;10817;55.820;13.030;2023-10-09T14:16:59;1.77;;;0.98;;
21315;SDS011;10817;55.820;13.030;2023-10-09T14:19:26;1.70;;;1.10;;
21315;SDS011;10817;55.820;13.030;2023-10-09T14:21:58;2.85;;;1.38;;
21315;SDS011;10817;55.820;13.030;2023-10-09T14:24:30;2.05;;;1.17;;
21315;SDS011;10817;55.820;13.030;2023-10-09T14:27:01;3.53;;;1.17;;
21315;SDS011;10817;55.820;13.030;2023-10-09T14:29:29;4.07;;;1.60;;
21315;SDS011;10817;55.820;13.030;2023-10-09T14:31:56;2.20;;;1.10;;
21315;SDS011;10817;55.820;13.030;2023-10-09T14:34:27;2.05;;;1.17;;
21315;SDS011;10817;55.820;13.030;2023-10-09T14:36:58;2.17;;;1.20;;
21315;SDS011;10817;55.820;13.030;2023-10-09T14:39:26;6.07;;;1.30;;
21315;SDS011;10817;55.820;13.030;2023-10-09T14:41:54;2.30;;;1.05;;
21315;SDS011;10817;55.820;13.030;2023-10-09T14:44:23;3.08;;;1.20;;
21315;SDS011;10817;55.820;13.030;2023-10-09T14:46:53;2.03;;;1.23;;
21315;SDS011;10817;55.820;13.030;2023-10-09T14:49:21;1.60;;;1.13;;
21315;SDS011;10817;55.820;13.030;2023-10-09T14:51:49;2.42;;;1.38;;
21315;SDS011;10817;55.820;13.030;2023-10-09T14:54:16;1.85;;;1.48;;
21315;SDS011;10817;55.820;13.030;2023-10-09T14:56:44;3.47;;;1.50;;
21315;SDS011;10817;55.820;13.030;2023-10-09T14:59:11;3.13;;;1.65;;
21315;SDS011;10817;55.820;13.030;2023-10-09T15:01:40;2.65;;;1.60;;
21315;SDS011;10817;55.820;13.030;2023-10-09T15:04:07;2.78;;;1.50;;
21315;SDS011;10817;55.820;13.030;2023-10-09T15:06:39;2.20;;;1.52;;
21315;SDS011;10817;55.820;13.030;2023-10-09T15:09:07;3.45;;;2.00;;
21315;SDS011;10817;55.820;13.030;2023-10-09T15:11:34;4.28;;;2.17;;
21315;SDS011;10817;55.820;13.030;2023-10-09T15:14:04;5.00;;;1.83;;
21315;SDS011;10817;55.820;13.030;2023-10-09T15:16:31;2.70;;;2.00;;